ANA1098 ROAH-RJTT
Flight info
| Callsign | ANA1098 |
|---|---|
| Flight time | N/A |
| Altitude | 39000 |
| Route | AMAMI Y574 SHIBK Y57 SUKBO Y571 BILLY Y21 AKSEL |
| Aircraft | B77W/H-SDE1E2E3FGHIJ2J3J4J5M1RWXY/LB1D1 |
Departure
| Time | 2026-04-28 10:39 |
|---|---|
| Airport | Naha International Airport (ROAH) |
Arrival
| Time | N/A |
|---|---|
| Airport | Tokyo Haneda International Airport (RJTT) |
| Time | Latitude | Longitude | Altitude | Speed | Heading |
|---|---|---|---|---|---|
| 2026-04-28 10:18 | 26.20716 | 127.64846 | 26 ft | 0 kts | 47° |
| 2026-04-28 10:31 | 26.20705 | 127.64834 | 29 ft | 2 kts | 47° |
| 2026-04-28 10:31 | 26.20694 | 127.64819 | 24 ft | 4 kts | 75° |
| 2026-04-28 10:31 | 26.20691 | 127.64792 | 28 ft | 4 kts | 80° |
| 2026-04-28 10:32 | 26.20686 | 127.64770 | 23 ft | 4 kts | 63° |
| 2026-04-28 10:32 | 26.20673 | 127.64751 | 22 ft | 4 kts | 28° |
| 2026-04-28 10:32 | 26.20651 | 127.64744 | 24 ft | 4 kts | 1° |
| 2026-04-28 10:32 | 26.20624 | 127.64745 | 22 ft | 4 kts | 357° |
| 2026-04-28 10:33 | 26.20620 | 127.64745 | 22 ft | 2 kts | 358° |
| 2026-04-28 10:36 | 26.20650 | 127.64744 | 24 ft | 9 kts | 358° |
| 2026-04-28 10:36 | 26.20746 | 127.64739 | 25 ft | 17 kts | 357° |
| 2026-04-28 10:36 | 26.20857 | 127.64734 | 23 ft | 13 kts | 357° |
| 2026-04-28 10:36 | 26.20901 | 127.64673 | 21 ft | 10 kts | 272° |
| 2026-04-28 10:37 | 26.20901 | 127.64651 | 21 ft | 0 kts | 269° |
| 2026-04-28 10:37 | 26.20900 | 127.64619 | 24 ft | 9 kts | 268° |
| 2026-04-28 10:38 | 26.20895 | 127.64543 | 26 ft | 7 kts | 246° |
| 2026-04-28 10:38 | 26.20854 | 127.64528 | 27 ft | 2 kts | 180° |
| 2026-04-28 10:38 | 26.20845 | 127.64528 | 23 ft | 6 kts | 178° |
| 2026-04-28 10:38 | 26.20746 | 127.64532 | 24 ft | 46 kts | 178° |
| 2026-04-28 10:39 | 26.19816 | 127.64576 | 21 ft | 152 kts | 178° |
| 2026-04-28 10:39 | 26.18611 | 127.64637 | 392 ft | 177 kts | 176° |
| 2026-04-28 10:39 | 26.17374 | 127.64704 | 1257 ft | 180 kts | 175° |
| 2026-04-28 10:39 | 26.16498 | 127.64754 | 1586 ft | 196 kts | 175° |
| 2026-04-28 10:40 | 26.14505 | 127.64855 | 1967 ft | 236 kts | 176° |
| 2026-04-28 10:40 | 26.13399 | 127.64909 | 2422 ft | 244 kts | 177° |
| 2026-04-28 10:40 | 26.11661 | 127.64991 | 3172 ft | 256 kts | 177° |
| 2026-04-28 10:40 | 26.09853 | 127.65071 | 4018 ft | 264 kts | 178° |
| 2026-04-28 10:41 | 26.08003 | 127.65152 | 4970 ft | 267 kts | 178° |
| 2026-04-28 10:41 | 26.06137 | 127.65233 | 5928 ft | 270 kts | 178° |
| 2026-04-28 10:41 | 26.03650 | 127.65519 | 6990 ft | 277 kts | 161° |
| 2026-04-28 10:41 | 26.02030 | 127.66697 | 7782 ft | 285 kts | 132° |
| 2026-04-28 10:42 | 26.01092 | 127.68610 | 8645 ft | 290 kts | 105° |
| 2026-04-28 10:42 | 26.00933 | 127.70104 | 9167 ft | 292 kts | 91° |
| 2026-04-28 10:42 | 26.01017 | 127.72400 | 9789 ft | 301 kts | 86° |
| 2026-04-28 10:42 | 26.01554 | 127.74653 | 10399 ft | 310 kts | 60° |
| 2026-04-28 10:43 | 26.02840 | 127.76575 | 11157 ft | 312 kts | 51° |
| 2026-04-28 10:43 | 26.04257 | 127.78490 | 11697 ft | 332 kts | 50° |
| 2026-04-28 10:43 | 26.05797 | 127.80563 | 11931 ft | 362 kts | 50° |
| 2026-04-28 10:43 | 26.07467 | 127.82817 | 12173 ft | 391 kts | 50° |
| 2026-04-28 10:44 | 26.09221 | 127.85199 | 12761 ft | 405 kts | 50° |
| 2026-04-28 10:44 | 26.10998 | 127.87625 | 13563 ft | 413 kts | 50° |
| 2026-04-28 10:44 | 26.12821 | 127.90123 | 14463 ft | 418 kts | 50° |
| 2026-04-28 10:44 | 26.14659 | 127.92645 | 15365 ft | 422 kts | 50° |
| 2026-04-28 10:45 | 26.16537 | 127.95181 | 16171 ft | 427 kts | 47° |
| 2026-04-28 10:45 | 26.18792 | 127.97311 | 16826 ft | 426 kts | 31° |
| 2026-04-28 10:45 | 26.22218 | 127.99572 | 17695 ft | 436 kts | 28° |
| 2026-04-28 10:45 | 26.24001 | 128.00714 | 18251 ft | 439 kts | 28° |
| 2026-04-28 10:46 | 26.26652 | 128.02421 | 19102 ft | 442 kts | 28° |
| 2026-04-28 10:46 | 26.29314 | 128.04162 | 19862 ft | 447 kts | 28° |
| 2026-04-28 10:46 | 26.32002 | 128.05948 | 20570 ft | 453 kts | 28° |
| 2026-04-28 10:46 | 26.34677 | 128.07747 | 21235 ft | 458 kts | 28° |
| 2026-04-28 10:47 | 26.37419 | 128.09602 | 21898 ft | 463 kts | 28° |
| 2026-04-28 10:47 | 26.40184 | 128.11478 | 22532 ft | 468 kts | 28° |
| 2026-04-28 10:47 | 26.42974 | 128.13372 | 23150 ft | 472 kts | 28° |
| 2026-04-28 10:47 | 26.45794 | 128.15288 | 23742 ft | 477 kts | 28° |
| 2026-04-28 10:48 | 26.48637 | 128.17219 | 24300 ft | 481 kts | 28° |
| 2026-04-28 10:48 | 26.51513 | 128.19173 | 24875 ft | 485 kts | 28° |
| 2026-04-28 10:48 | 26.54398 | 128.21134 | 25406 ft | 489 kts | 28° |
| 2026-04-28 10:48 | 26.57273 | 128.23090 | 25924 ft | 492 kts | 28° |
| 2026-04-28 10:49 | 26.60216 | 128.25094 | 26411 ft | 496 kts | 28° |
| 2026-04-28 10:49 | 26.63167 | 128.27105 | 26931 ft | 500 kts | 28° |
| 2026-04-28 10:49 | 26.66149 | 128.29136 | 27431 ft | 503 kts | 28° |
| 2026-04-28 10:49 | 26.69057 | 128.31346 | 27867 ft | 510 kts | 38° |
| 2026-04-28 10:50 | 26.71481 | 128.34275 | 28245 ft | 517 kts | 50° |
| 2026-04-28 10:50 | 26.73653 | 128.37468 | 28655 ft | 521 kts | 51° |
| 2026-04-28 10:50 | 26.75836 | 128.40747 | 29073 ft | 524 kts | 51° |
| 2026-04-28 10:50 | 26.78040 | 128.44007 | 29460 ft | 526 kts | 50° |
| 2026-04-28 10:51 | 26.80260 | 128.47211 | 29803 ft | 529 kts | 50° |
| 2026-04-28 10:51 | 26.82544 | 128.50444 | 30196 ft | 530 kts | 49° |
| 2026-04-28 10:51 | 26.84842 | 128.53670 | 30717 ft | 529 kts | 49° |
| 2026-04-28 10:51 | 26.87125 | 128.56874 | 31293 ft | 525 kts | 49° |
| 2026-04-28 10:52 | 26.89398 | 128.60076 | 31841 ft | 523 kts | 49° |
| 2026-04-28 10:52 | 26.91658 | 128.63266 | 32357 ft | 521 kts | 48° |
| 2026-04-28 10:52 | 26.94163 | 128.66164 | 32781 ft | 516 kts | 35° |
| 2026-04-28 10:52 | 26.97187 | 128.68242 | 33149 ft | 508 kts | 24° |
| 2026-04-28 10:53 | 27.00334 | 128.70058 | 33478 ft | 509 kts | 24° |
| 2026-04-28 10:53 | 27.03443 | 128.71840 | 33885 ft | 508 kts | 24° |
| 2026-04-28 10:53 | 27.06582 | 128.73658 | 34330 ft | 507 kts | 24° |
| 2026-04-28 10:53 | 27.09704 | 128.75497 | 34753 ft | 506 kts | 24° |
| 2026-04-28 10:54 | 27.11818 | 128.76760 | 34993 ft | 506 kts | 25° |
| 2026-04-28 10:54 | 27.14920 | 128.78633 | 35342 ft | 507 kts | 25° |
| 2026-04-28 10:54 | 27.18017 | 128.80515 | 35702 ft | 506 kts | 25° |
| 2026-04-28 10:54 | 27.21116 | 128.82404 | 36064 ft | 506 kts | 25° |
| 2026-04-28 10:55 | 27.23888 | 128.84096 | 36355 ft | 506 kts | 25° |
| 2026-04-28 10:55 | 27.26981 | 128.85986 | 36639 ft | 507 kts | 25° |
| 2026-04-28 10:55 | 27.30074 | 128.87874 | 37003 ft | 505 kts | 25° |
| 2026-04-28 10:55 | 27.33151 | 128.89753 | 37430 ft | 501 kts | 25° |
| 2026-04-28 10:56 | 27.36206 | 128.91619 | 37796 ft | 499 kts | 25° |
| 2026-04-28 10:56 | 27.39254 | 128.93481 | 38146 ft | 497 kts | 25° |
| 2026-04-28 10:56 | 27.42288 | 128.95334 | 38434 ft | 496 kts | 25° |
| 2026-04-28 10:56 | 27.45326 | 128.97191 | 38667 ft | 497 kts | 25° |
| 2026-04-28 10:57 | 27.48356 | 128.99043 | 39027 ft | 494 kts | 25° |
| 2026-04-28 10:57 | 27.54372 | 129.02725 | 39009 ft | 494 kts | 25° |
| 2026-04-28 10:58 | 27.60358 | 129.06398 | 39014 ft | 486 kts | 25° |
| 2026-04-28 10:58 | 27.66287 | 129.10040 | 39024 ft | 484 kts | 25° |
| 2026-04-28 10:59 | 27.72202 | 129.13672 | 39026 ft | 484 kts | 24° |
| 2026-04-28 10:59 | 27.78069 | 129.17282 | 39020 ft | 484 kts | 25° |
| 2026-04-28 11:00 | 27.83986 | 129.20929 | 39024 ft | 485 kts | 25° |
| 2026-04-28 11:00 | 27.89914 | 129.24587 | 39012 ft | 486 kts | 25° |
| 2026-04-28 11:01 | 27.95844 | 129.28250 | 39014 ft | 487 kts | 25° |
| 2026-04-28 11:01 | 28.01750 | 129.31903 | 39026 ft | 487 kts | 25° |
| 2026-04-28 11:02 | 28.07697 | 129.35587 | 39022 ft | 487 kts | 25° |
| 2026-04-28 11:02 | 28.13643 | 129.39277 | 39023 ft | 487 kts | 25° |
| 2026-04-28 11:03 | 28.19158 | 129.42700 | 39008 ft | 486 kts | 25° |
| 2026-04-28 11:03 | 28.25048 | 129.46361 | 39028 ft | 485 kts | 25° |
| 2026-04-28 11:04 | 28.30957 | 129.50040 | 39004 ft | 484 kts | 25° |
| 2026-04-28 11:04 | 28.36856 | 129.53717 | 39014 ft | 484 kts | 25° |
| 2026-04-28 11:05 | 28.42371 | 129.58056 | 39014 ft | 490 kts | 47° |
| 2026-04-28 11:05 | 28.44247 | 129.61307 | 39028 ft | 495 kts | 64° |
| 2026-04-28 11:05 | 28.45302 | 129.64969 | 39015 ft | 498 kts | 81° |
| 2026-04-28 11:06 | 28.46063 | 129.72781 | 39020 ft | 500 kts | 84° |
| 2026-04-28 11:06 | 28.46802 | 129.80660 | 39027 ft | 503 kts | 83° |
| 2026-04-28 11:07 | 28.47639 | 129.88574 | 39024 ft | 506 kts | 83° |
| 2026-04-28 11:07 | 28.48503 | 129.96523 | 39027 ft | 508 kts | 83° |
| 2026-04-28 11:08 | 28.49353 | 130.04447 | 39018 ft | 509 kts | 83° |
| 2026-04-28 11:08 | 28.50587 | 130.12340 | 39015 ft | 506 kts | 71° |
| 2026-04-28 11:09 | 28.53416 | 130.19607 | 39007 ft | 501 kts | 55° |
| 2026-04-28 11:09 | 28.57358 | 130.26100 | 39019 ft | 498 kts | 52° |
| 2026-04-28 11:10 | 28.61332 | 130.32480 | 39022 ft | 497 kts | 52° |
| 2026-04-28 11:10 | 28.65267 | 130.38944 | 39010 ft | 497 kts | 53° |
| 2026-04-28 11:11 | 28.69166 | 130.45424 | 39025 ft | 496 kts | 53° |
| 2026-04-28 11:11 | 28.73073 | 130.51913 | 39029 ft | 496 kts | 53° |
| 2026-04-28 11:12 | 28.76979 | 130.58400 | 39029 ft | 497 kts | 53° |
| 2026-04-28 11:12 | 28.80868 | 130.64864 | 39027 ft | 498 kts | 53° |
| 2026-04-28 11:13 | 28.84781 | 130.71382 | 39031 ft | 499 kts | 53° |
| 2026-04-28 11:13 | 28.88698 | 130.77916 | 39029 ft | 499 kts | 53° |
| 2026-04-28 11:14 | 28.92615 | 130.84462 | 39027 ft | 500 kts | 53° |
| 2026-04-28 11:14 | 28.96507 | 130.90978 | 39029 ft | 500 kts | 53° |
| 2026-04-28 11:15 | 29.00431 | 130.97555 | 39027 ft | 501 kts | 53° |
| 2026-04-28 11:15 | 29.04350 | 131.04140 | 39027 ft | 501 kts | 53° |
| 2026-04-28 11:16 | 29.08270 | 131.10729 | 39010 ft | 501 kts | 53° |
| 2026-04-28 11:16 | 29.12161 | 131.17282 | 39027 ft | 501 kts | 53° |
| 2026-04-28 11:17 | 29.16075 | 131.23884 | 39026 ft | 501 kts | 53° |
| 2026-04-28 11:17 | 29.19982 | 131.30488 | 39013 ft | 501 kts | 53° |
| 2026-04-28 11:18 | 29.23891 | 131.37104 | 39008 ft | 502 kts | 53° |
| 2026-04-28 11:18 | 29.27797 | 131.43727 | 39013 ft | 502 kts | 53° |
| 2026-04-28 11:19 | 29.31675 | 131.50311 | 39007 ft | 502 kts | 53° |
| 2026-04-28 11:19 | 29.35580 | 131.56951 | 39045 ft | 502 kts | 53° |
| 2026-04-28 11:20 | 29.39482 | 131.63599 | 39047 ft | 503 kts | 53° |
| 2026-04-28 11:20 | 29.43385 | 131.70261 | 39043 ft | 504 kts | 53° |
| 2026-04-28 11:21 | 29.47266 | 131.76896 | 39049 ft | 505 kts | 53° |
| 2026-04-28 11:21 | 29.51178 | 131.83596 | 39046 ft | 505 kts | 53° |
| 2026-04-28 11:22 | 29.55085 | 131.90302 | 39046 ft | 506 kts | 53° |
| 2026-04-28 11:22 | 29.58994 | 131.97018 | 39047 ft | 506 kts | 53° |
| 2026-04-28 11:23 | 29.62903 | 132.03752 | 39043 ft | 506 kts | 53° |
| 2026-04-28 11:23 | 29.66910 | 132.10309 | 39046 ft | 504 kts | 48° |
| 2026-04-28 11:24 | 29.71351 | 132.16537 | 39050 ft | 503 kts | 47° |
| 2026-04-28 11:24 | 29.75836 | 132.22722 | 39047 ft | 504 kts | 47° |
| 2026-04-28 11:25 | 29.80296 | 132.28938 | 39047 ft | 504 kts | 47° |
| 2026-04-28 11:25 | 29.84710 | 132.35145 | 39038 ft | 505 kts | 47° |
| 2026-04-28 11:26 | 29.89152 | 132.41415 | 39036 ft | 505 kts | 47° |
| 2026-04-28 11:26 | 29.93586 | 132.47681 | 39039 ft | 504 kts | 47° |
| 2026-04-28 11:27 | 29.98013 | 132.53943 | 39036 ft | 504 kts | 47° |
| 2026-04-28 11:27 | 30.02410 | 132.60171 | 39034 ft | 504 kts | 47° |
| 2026-04-28 11:28 | 30.06828 | 132.66436 | 39034 ft | 503 kts | 47° |
| 2026-04-28 11:28 | 30.11242 | 132.72705 | 39039 ft | 503 kts | 47° |
| 2026-04-28 11:29 | 30.15650 | 132.78974 | 39034 ft | 503 kts | 47° |
| 2026-04-28 11:29 | 30.20030 | 132.85219 | 39037 ft | 504 kts | 47° |
| 2026-04-28 11:30 | 30.24443 | 132.91523 | 39038 ft | 505 kts | 47° |
| 2026-04-28 11:30 | 30.31082 | 133.01016 | 39039 ft | 507 kts | 47° |
| 2026-04-28 11:31 | 30.35485 | 133.07327 | 39038 ft | 508 kts | 47° |
| 2026-04-28 11:31 | 30.39924 | 133.13697 | 39028 ft | 509 kts | 48° |
| 2026-04-28 11:32 | 30.44363 | 133.20081 | 39028 ft | 509 kts | 48° |
| 2026-04-28 11:32 | 30.48803 | 133.26476 | 39006 ft | 509 kts | 48° |
| 2026-04-28 11:33 | 30.53236 | 133.32871 | 39004 ft | 509 kts | 48° |
| 2026-04-28 11:33 | 30.57636 | 133.39225 | 38999 ft | 508 kts | 48° |
| 2026-04-28 11:34 | 30.62059 | 133.45626 | 39002 ft | 508 kts | 48° |
| 2026-04-28 11:34 | 30.66474 | 133.52027 | 39012 ft | 508 kts | 48° |
| 2026-04-28 11:35 | 30.70890 | 133.58438 | 39003 ft | 508 kts | 48° |
| 2026-04-28 11:35 | 30.75276 | 133.64816 | 39008 ft | 509 kts | 48° |
| 2026-04-28 11:36 | 30.79688 | 133.71242 | 39008 ft | 509 kts | 48° |
| 2026-04-28 11:36 | 30.84105 | 133.77684 | 39018 ft | 510 kts | 48° |
| 2026-04-28 11:37 | 30.88531 | 133.84146 | 39007 ft | 510 kts | 48° |
| 2026-04-28 11:37 | 30.92952 | 133.90610 | 39005 ft | 511 kts | 48° |
| 2026-04-28 11:38 | 30.97354 | 133.97058 | 39000 ft | 512 kts | 48° |
| 2026-04-28 11:38 | 31.01778 | 134.03553 | 38994 ft | 512 kts | 48° |
| 2026-04-28 11:39 | 31.06213 | 134.10073 | 38991 ft | 513 kts | 48° |
| 2026-04-28 11:39 | 31.10653 | 134.16608 | 38993 ft | 514 kts | 48° |
| 2026-04-28 11:40 | 31.15063 | 134.23112 | 38992 ft | 515 kts | 49° |
| 2026-04-28 11:40 | 31.19507 | 134.29678 | 38997 ft | 516 kts | 49° |
| 2026-04-28 11:41 | 31.23951 | 134.36259 | 38989 ft | 516 kts | 49° |
| 2026-04-28 11:41 | 31.28396 | 134.42849 | 38987 ft | 517 kts | 49° |
| 2026-04-28 11:42 | 31.32818 | 134.49414 | 38991 ft | 517 kts | 49° |
| 2026-04-28 11:42 | 31.37270 | 134.56035 | 38983 ft | 518 kts | 49° |
| 2026-04-28 11:43 | 31.41715 | 134.62658 | 38982 ft | 518 kts | 49° |
| 2026-04-28 11:43 | 31.46161 | 134.69294 | 38983 ft | 518 kts | 49° |
| 2026-04-28 11:44 | 31.50575 | 134.75896 | 38980 ft | 518 kts | 49° |
| 2026-04-28 11:44 | 31.55019 | 134.82553 | 38981 ft | 518 kts | 49° |
| 2026-04-28 11:45 | 31.59458 | 134.89215 | 38980 ft | 519 kts | 49° |
| 2026-04-28 11:45 | 31.63903 | 134.95895 | 38983 ft | 520 kts | 49° |
| 2026-04-28 11:46 | 31.68316 | 135.02541 | 38981 ft | 520 kts | 49° |
| 2026-04-28 11:46 | 31.72823 | 135.09192 | 38975 ft | 519 kts | 45° |
| 2026-04-28 11:47 | 31.77641 | 135.15515 | 38986 ft | 519 kts | 44° |
| 2026-04-28 11:47 | 31.82527 | 135.21779 | 38979 ft | 520 kts | 44° |
| 2026-04-28 11:48 | 31.87363 | 135.28035 | 38976 ft | 521 kts | 44° |
| 2026-04-28 11:48 | 31.92219 | 135.34380 | 38972 ft | 522 kts | 44° |
| 2026-04-28 11:49 | 31.97076 | 135.40749 | 38964 ft | 523 kts | 44° |
| 2026-04-28 11:49 | 32.01941 | 135.47131 | 38954 ft | 524 kts | 44° |
| 2026-04-28 11:50 | 32.06808 | 135.53530 | 38954 ft | 525 kts | 44° |
| 2026-04-28 11:50 | 32.11650 | 135.59904 | 38955 ft | 525 kts | 44° |
| 2026-04-28 11:51 | 32.16521 | 135.66329 | 38962 ft | 525 kts | 44° |
| 2026-04-28 11:51 | 32.21395 | 135.72766 | 38963 ft | 526 kts | 44° |
| 2026-04-28 11:52 | 32.26230 | 135.79168 | 38962 ft | 525 kts | 44° |
| 2026-04-28 11:52 | 32.31094 | 135.85616 | 38963 ft | 526 kts | 44° |
| 2026-04-28 11:53 | 32.35951 | 135.92064 | 38963 ft | 525 kts | 44° |
| 2026-04-28 11:53 | 32.40811 | 135.98529 | 38962 ft | 525 kts | 44° |
| 2026-04-28 11:54 | 32.45660 | 136.04991 | 38962 ft | 525 kts | 44° |
| 2026-04-28 11:54 | 32.50478 | 136.11408 | 38963 ft | 525 kts | 44° |
| 2026-04-28 11:55 | 32.55334 | 136.17890 | 38963 ft | 525 kts | 44° |
| 2026-04-28 11:55 | 32.60178 | 136.24371 | 38963 ft | 525 kts | 44° |
| 2026-04-28 11:56 | 32.65020 | 136.30859 | 38963 ft | 526 kts | 44° |
| 2026-04-28 11:56 | 32.69839 | 136.37327 | 38965 ft | 527 kts | 44° |
| 2026-04-28 11:57 | 32.74691 | 136.43856 | 38964 ft | 527 kts | 44° |
| 2026-04-28 11:57 | 32.79543 | 136.50390 | 38962 ft | 528 kts | 44° |
| 2026-04-28 11:58 | 32.84398 | 136.56946 | 38963 ft | 528 kts | 44° |
| 2026-04-28 11:58 | 32.89214 | 136.63460 | 38963 ft | 528 kts | 44° |
| 2026-04-28 11:59 | 32.94070 | 136.70030 | 38964 ft | 529 kts | 44° |
| 2026-04-28 11:59 | 32.98926 | 136.76610 | 38963 ft | 529 kts | 44° |
| 2026-04-28 12:00 | 33.03776 | 136.83192 | 38961 ft | 529 kts | 44° |
| 2026-04-28 12:00 | 33.08596 | 136.89747 | 38964 ft | 529 kts | 44° |
| 2026-04-28 12:01 | 33.13444 | 136.96354 | 38964 ft | 529 kts | 44° |
| 2026-04-28 12:01 | 33.18284 | 137.02962 | 38961 ft | 529 kts | 44° |
| 2026-04-28 12:02 | 33.23133 | 137.09592 | 38944 ft | 530 kts | 44° |
| 2026-04-28 12:02 | 33.27946 | 137.16185 | 38944 ft | 530 kts | 44° |
| 2026-04-28 12:03 | 33.32788 | 137.22834 | 38944 ft | 530 kts | 44° |
| 2026-04-28 12:03 | 33.37628 | 137.29493 | 38943 ft | 531 kts | 44° |
| 2026-04-28 12:04 | 33.42471 | 137.36167 | 38942 ft | 531 kts | 44° |
| 2026-04-28 12:04 | 33.47312 | 137.42851 | 38944 ft | 532 kts | 44° |
| 2026-04-28 12:05 | 33.52127 | 137.49514 | 38942 ft | 532 kts | 44° |
| 2026-04-28 12:05 | 33.56976 | 137.56234 | 38944 ft | 533 kts | 44° |
| 2026-04-28 12:06 | 33.61626 | 137.63187 | 38954 ft | 538 kts | 52° |
| 2026-04-28 12:06 | 33.65403 | 137.70992 | 38950 ft | 542 kts | 59° |
| 2026-04-28 12:07 | 33.68961 | 137.78992 | 38952 ft | 543 kts | 59° |
| 2026-04-28 12:07 | 33.72530 | 137.86922 | 38942 ft | 544 kts | 58° |
| 2026-04-28 12:08 | 33.76161 | 137.94885 | 38944 ft | 544 kts | 58° |
| 2026-04-28 12:08 | 33.79791 | 138.02847 | 38946 ft | 544 kts | 58° |
| 2026-04-28 12:09 | 33.83418 | 138.10831 | 38916 ft | 544 kts | 58° |
| 2026-04-28 12:09 | 33.85247 | 138.14863 | 38264 ft | 554 kts | 58° |
| 2026-04-28 12:09 | 33.87066 | 138.18881 | 37588 ft | 553 kts | 58° |
| 2026-04-28 12:10 | 33.88892 | 138.22926 | 37017 ft | 547 kts | 59° |
| 2026-04-28 12:10 | 33.90694 | 138.26922 | 36434 ft | 534 kts | 59° |
| 2026-04-28 12:10 | 33.92442 | 138.30809 | 35463 ft | 526 kts | 59° |
| 2026-04-28 12:10 | 33.94158 | 138.34653 | 34589 ft | 517 kts | 59° |
| 2026-04-28 12:11 | 33.95864 | 138.38487 | 33767 ft | 520 kts | 59° |
| 2026-04-28 12:11 | 33.97577 | 138.42342 | 32911 ft | 524 kts | 59° |
| 2026-04-28 12:11 | 33.99303 | 138.46230 | 32007 ft | 528 kts | 59° |
| 2026-04-28 12:11 | 34.01021 | 138.50100 | 31087 ft | 533 kts | 59° |
| 2026-04-28 12:12 | 34.02775 | 138.54056 | 30104 ft | 538 kts | 59° |
| 2026-04-28 12:12 | 34.04539 | 138.58038 | 29418 ft | 539 kts | 59° |
| 2026-04-28 12:12 | 34.06306 | 138.62036 | 28790 ft | 541 kts | 59° |
| 2026-04-28 12:12 | 34.08082 | 138.66056 | 28162 ft | 547 kts | 59° |
| 2026-04-28 12:13 | 34.09873 | 138.70114 | 27526 ft | 546 kts | 59° |
| 2026-04-28 12:13 | 34.11643 | 138.74135 | 26893 ft | 541 kts | 59° |
| 2026-04-28 12:13 | 34.13401 | 138.78133 | 26258 ft | 535 kts | 59° |
| 2026-04-28 12:13 | 34.15135 | 138.82079 | 25628 ft | 530 kts | 59° |
| 2026-04-28 12:14 | 34.16827 | 138.85932 | 25038 ft | 525 kts | 59° |
| 2026-04-28 12:14 | 34.18533 | 138.89817 | 24432 ft | 520 kts | 59° |
| 2026-04-28 12:14 | 34.20213 | 138.93652 | 23834 ft | 515 kts | 59° |
| 2026-04-28 12:14 | 34.21881 | 138.97460 | 23237 ft | 510 kts | 59° |
| 2026-04-28 12:15 | 34.23532 | 139.01233 | 22671 ft | 506 kts | 59° |
| 2026-04-28 12:15 | 34.25165 | 139.04970 | 22073 ft | 501 kts | 59° |
| 2026-04-28 12:15 | 34.26785 | 139.08680 | 21486 ft | 497 kts | 59° |
| 2026-04-28 12:15 | 34.28378 | 139.12372 | 20923 ft | 494 kts | 61° |
| 2026-04-28 12:16 | 34.29763 | 139.16087 | 20501 ft | 488 kts | 65° |
| 2026-04-28 12:16 | 34.31064 | 139.19856 | 20094 ft | 485 kts | 65° |
| 2026-04-28 12:16 | 34.32348 | 139.23641 | 19702 ft | 486 kts | 66° |
| 2026-04-28 12:16 | 34.33627 | 139.27418 | 19302 ft | 487 kts | 65° |
| 2026-04-28 12:17 | 34.34914 | 139.31201 | 18888 ft | 484 kts | 66° |
| 2026-04-28 12:17 | 34.36198 | 139.34955 | 18481 ft | 480 kts | 66° |
| 2026-04-28 12:17 | 34.37475 | 139.38677 | 18081 ft | 477 kts | 66° |
| 2026-04-28 12:17 | 34.38743 | 139.42369 | 17686 ft | 474 kts | 66° |
| 2026-04-28 12:18 | 34.40005 | 139.46046 | 17282 ft | 470 kts | 66° |
| 2026-04-28 12:18 | 34.41238 | 139.49642 | 16887 ft | 467 kts | 66° |
| 2026-04-28 12:18 | 34.42477 | 139.53261 | 16484 ft | 464 kts | 66° |
| 2026-04-28 12:18 | 34.43703 | 139.56850 | 16107 ft | 460 kts | 66° |
| 2026-04-28 12:19 | 34.44922 | 139.60421 | 15710 ft | 456 kts | 66° |
| 2026-04-28 12:19 | 34.46128 | 139.63957 | 15333 ft | 452 kts | 66° |
| 2026-04-28 12:19 | 34.47347 | 139.67441 | 14943 ft | 445 kts | 62° |
| 2026-04-28 12:19 | 34.48972 | 139.70593 | 14576 ft | 437 kts | 48° |
| 2026-04-28 12:20 | 34.51038 | 139.73246 | 14222 ft | 429 kts | 37° |
| 2026-04-28 12:20 | 34.53407 | 139.75367 | 13866 ft | 418 kts | 26° |
| 2026-04-28 12:20 | 34.55903 | 139.77127 | 13609 ft | 412 kts | 25° |
| 2026-04-28 12:20 | 34.58381 | 139.78875 | 13314 ft | 413 kts | 25° |
| 2026-04-28 12:21 | 34.60818 | 139.80629 | 12970 ft | 416 kts | 26° |
| 2026-04-28 12:21 | 34.63323 | 139.82465 | 12613 ft | 413 kts | 26° |
| 2026-04-28 12:21 | 34.65749 | 139.84231 | 12269 ft | 409 kts | 24° |
| 2026-04-28 12:21 | 34.68291 | 139.85716 | 12006 ft | 403 kts | 17° |
| 2026-04-28 12:22 | 34.70907 | 139.86845 | 12006 ft | 396 kts | 10° |
| 2026-04-28 12:22 | 34.73564 | 139.87707 | 12003 ft | 396 kts | 9° |
| 2026-04-28 12:22 | 34.76231 | 139.88544 | 12000 ft | 397 kts | 9° |
| 2026-04-28 12:22 | 34.78902 | 139.89392 | 11998 ft | 397 kts | 9° |
| 2026-04-28 12:23 | 34.81577 | 139.90257 | 11997 ft | 397 kts | 9° |
| 2026-04-28 12:23 | 34.84244 | 139.91128 | 12001 ft | 397 kts | 9° |
| 2026-04-28 12:23 | 34.86869 | 139.92051 | 12005 ft | 399 kts | 14° |
| 2026-04-28 12:23 | 34.89413 | 139.93446 | 12015 ft | 404 kts | 24° |
| 2026-04-28 12:24 | 34.91797 | 139.95306 | 12014 ft | 409 kts | 33° |
| 2026-04-28 12:24 | 34.93965 | 139.97552 | 12018 ft | 410 kts | 38° |
| 2026-04-28 12:24 | 34.96108 | 139.99862 | 12018 ft | 411 kts | 37° |
| 2026-04-28 12:24 | 34.98287 | 140.02102 | 12014 ft | 409 kts | 33° |
| 2026-04-28 12:25 | 35.00649 | 140.04007 | 12003 ft | 406 kts | 26° |
| 2026-04-28 12:25 | 35.03124 | 140.05569 | 11678 ft | 405 kts | 19° |
| 2026-04-28 12:25 | 35.05671 | 140.06817 | 11371 ft | 382 kts | 17° |
| 2026-04-28 12:25 | 35.08063 | 140.07951 | 11095 ft | 357 kts | 16° |
| 2026-04-28 12:26 | 35.10312 | 140.09014 | 10851 ft | 336 kts | 16° |
| 2026-04-28 12:26 | 35.12431 | 140.10020 | 10616 ft | 317 kts | 16° |
| 2026-04-28 12:26 | 35.14448 | 140.10978 | 10422 ft | 308 kts | 16° |
| 2026-04-28 12:26 | 35.16428 | 140.11917 | 10220 ft | 304 kts | 16° |
| 2026-04-28 12:27 | 35.18393 | 140.12857 | 10008 ft | 301 kts | 17° |
| 2026-04-28 12:27 | 35.20331 | 140.13786 | 9813 ft | 298 kts | 17° |
| 2026-04-28 12:27 | 35.22253 | 140.14696 | 9605 ft | 291 kts | 13° |
| 2026-04-28 12:27 | 35.24184 | 140.15243 | 9597 ft | 286 kts | 4° |
| 2026-04-28 12:28 | 35.26172 | 140.15579 | 9462 ft | 297 kts | 2° |
| 2026-04-28 12:28 | 35.28272 | 140.15902 | 9279 ft | 300 kts | 3° |
| 2026-04-28 12:28 | 35.30305 | 140.16227 | 9080 ft | 297 kts | 4° |
| 2026-04-28 12:28 | 35.32338 | 140.16573 | 8887 ft | 294 kts | 4° |
| 2026-04-28 12:29 | 35.36331 | 140.17287 | 8526 ft | 288 kts | 5° |
| 2026-04-28 12:29 | 35.37963 | 140.17585 | 8379 ft | 286 kts | 5° |
| 2026-04-28 12:29 | 35.39898 | 140.17942 | 8194 ft | 284 kts | 5° |
| 2026-04-28 12:30 | 35.40739 | 140.18098 | 8124 ft | 284 kts | 5° |